createdAt,value
2019-06-15T00:01:14.508Z,100686.46
2019-06-15T00:03:45.442Z,100681.30
2019-06-15T00:06:15.841Z,100682.15
2019-06-15T00:08:46.581Z,100695.12
2019-06-15T00:11:17.082Z,100697.30
2019-06-15T00:13:47.720Z,100694.25
2019-06-15T00:16:18.090Z,100693.37
2019-06-15T00:18:49.794Z,100687.34
2019-06-15T00:21:20.111Z,100684.28
2019-06-15T00:23:50.794Z,100680.83
2019-06-15T00:26:21.365Z,100675.20
2019-06-15T00:28:51.950Z,100685.59
2019-06-15T00:31:22.434Z,100676.09
2019-06-15T00:33:53.387Z,100686.45
2019-06-15T00:36:24.047Z,100686.45
2019-06-15T00:38:54.647Z,100705.91
2019-06-15T00:41:24.931Z,100725.35
2019-06-15T00:43:55.569Z,100708.51
2019-06-15T00:46:26.831Z,100681.27
2019-06-15T00:48:57.534Z,100638.06
2019-06-15T00:51:32.815Z,100638.06
2019-06-15T00:54:07.993Z,100643.28
2019-06-15T00:56:40.818Z,100642.48
2019-06-15T00:59:11.155Z,100645.50
2019-06-15T01:01:41.438Z,100641.59
2019-06-15T01:04:12.021Z,100636.43
2019-06-15T01:06:42.688Z,100629.95
2019-06-15T01:09:13.014Z,100618.73
2019-06-15T01:11:43.631Z,100603.19
2019-06-15T01:14:15.673Z,100591.94
2019-06-15T01:16:46.328Z,100571.22
2019-06-15T01:19:16.899Z,100550.48
2019-06-15T01:21:47.802Z,100541.85
2019-06-15T01:24:18.361Z,100537.95
2019-06-15T01:26:48.886Z,100537.95
2019-06-15T01:29:19.694Z,100537.95
2019-06-15T01:31:50.299Z,100550.89
2019-06-15T01:34:20.854Z,100548.72
2019-06-15T01:36:51.401Z,100550.48
2019-06-15T01:39:23.172Z,100546.59
2019-06-15T01:41:54.022Z,100546.59
2019-06-15T01:44:26.942Z,100556.09
2019-06-15T01:46:57.596Z,100556.08
2019-06-15T01:49:28.123Z,100568.58
2019-06-15T01:51:58.710Z,100572.45
2019-06-15T01:54:29.302Z,100568.16
2019-06-15T01:56:59.898Z,100571.59
2019-06-15T01:59:32.081Z,100570.28
2019-06-15T02:02:02.695Z,100574.61
2019-06-15T02:04:33.338Z,100573.34
2019-06-15T02:07:05.680Z,100580.24
2019-06-15T02:09:36.300Z,100580.24
2019-06-15T02:12:06.812Z,100592.31
2019-06-15T02:14:37.455Z,100592.34
2019-06-15T02:17:08.128Z,100588.45
2019-06-15T02:19:38.726Z,100588.47
2019-06-15T02:22:10.096Z,100594.52
2019-06-15T02:24:42.196Z,100610.91
2019-06-15T02:27:12.833Z,100607.91
2019-06-15T02:29:43.472Z,100601.84
2019-06-15T02:32:13.803Z,100602.73
2019-06-15T02:34:44.683Z,100604.01
2019-06-15T02:37:15.226Z,100587.61
2019-06-15T02:39:45.710Z,100587.61
2019-06-15T02:42:16.086Z,100582.84
2019-06-15T02:44:46.662Z,100575.50
2019-06-15T02:47:18.042Z,100573.77
2019-06-15T02:49:48.631Z,100581.54
2019-06-15T02:52:20.275Z,100589.77
2019-06-15T02:54:50.893Z,100585.00
2019-06-15T02:57:23.010Z,100589.77
2019-06-15T02:59:53.611Z,100578.11
2019-06-15T03:02:24.193Z,100573.35
2019-06-15T03:04:54.839Z,100580.70
2019-06-15T03:07:27.364Z,100575.06
2019-06-15T03:09:57.781Z,100564.69
2019-06-15T03:12:28.137Z,100555.19
2019-06-15T03:14:58.721Z,100544.41
2019-06-15T03:17:29.306Z,100530.14
2019-06-15T03:20:00.011Z,100491.70
2019-06-15T03:22:30.748Z,100491.70
2019-06-15T03:25:03.353Z,100477.89
2019-06-15T03:27:33.962Z,100479.63
2019-06-15T03:30:04.803Z,100494.31
2019-06-15T03:32:35.961Z,100500.36
2019-06-15T03:35:06.600Z,100515.45
2019-06-15T03:37:37.204Z,100522.37
2019-06-15T03:40:10.932Z,100525.83
2019-06-15T03:42:41.486Z,100530.15
2019-06-15T03:45:14.075Z,100524.09
2019-06-15T03:47:44.975Z,100530.55
2019-06-15T03:50:16.493Z,100520.19
2019-06-15T03:52:47.088Z,100510.66
2019-06-15T03:55:17.877Z,100501.58
2019-06-15T03:57:48.195Z,100511.56
2019-06-15T04:01:02.394Z,100540.91
2019-06-15T04:03:32.907Z,100579.36
2019-06-15T04:06:03.801Z,100597.10
2019-06-15T04:08:35.634Z,100621.73
2019-06-15T04:11:06.222Z,100643.31
2019-06-15T04:13:37.820Z,100644.63
2019-06-15T04:16:08.395Z,100631.20
2019-06-15T04:18:40.397Z,100638.15
2019-06-15T04:21:11.374Z,100638.15
2019-06-15T04:23:41.960Z,100640.72
2019-06-15T04:26:12.666Z,100642.05
2019-06-15T04:28:45.357Z,100634.69
2019-06-15T04:31:15.935Z,100633.84
2019-06-15T04:33:48.503Z,100629.95
2019-06-15T04:36:19.073Z,100624.33
2019-06-15T04:38:49.687Z,100625.22
2019-06-15T04:41:20.301Z,100627.36
2019-06-15T04:43:50.902Z,100637.28
2019-06-15T04:46:21.197Z,100642.05
2019-06-15T04:48:52.107Z,100658.02
2019-06-15T04:51:22.504Z,100664.48
2019-06-15T04:53:53.073Z,100662.34
2019-06-15T04:56:27.523Z,100663.22
2019-06-15T04:58:58.182Z,100652.84
2019-06-15T05:01:28.808Z,100652.84
2019-06-15T05:03:59.116Z,100642.48
2019-06-15T05:06:30.251Z,100646.78
2019-06-15T05:09:01.390Z,100646.80
2019-06-15T05:11:32.663Z,100648.95
2019-06-15T05:14:03.911Z,100660.61
2019-06-15T05:16:35.787Z,100672.28
2019-06-15T05:19:06.788Z,100677.45
2019-06-15T05:21:38.723Z,100664.92
2019-06-15T05:24:11.236Z,100641.20
2019-06-15T05:26:41.746Z,100644.20
2019-06-15T05:29:13.174Z,100648.94
2019-06-15T05:31:43.570Z,100660.19
2019-06-15T05:34:14.520Z,100658.89
2019-06-15T05:36:45.129Z,100656.72
2019-06-15T05:39:15.613Z,100658.03
2019-06-15T05:41:46.871Z,100644.63
2019-06-15T05:44:23.486Z,100645.08
2019-06-15T05:46:54.920Z,100649.83
2019-06-15T05:49:25.529Z,100651.53
2019-06-15T05:51:55.871Z,100657.59
2019-06-15T05:54:26.511Z,100670.09
2019-06-15T05:56:57.167Z,100666.22
2019-06-15T05:59:28.009Z,100678.30
2019-06-15T06:01:58.552Z,100677.87
2019-06-15T06:04:29.349Z,100685.63
2019-06-15T06:07:00.866Z,100681.75
2019-06-15T06:09:31.503Z,100690.83
2019-06-15T06:12:02.244Z,100696.88
2019-06-15T06:14:32.825Z,100695.58
2019-06-15T06:17:04.595Z,100684.36
2019-06-15T06:19:35.852Z,100680.92
2019-06-15T06:22:09.029Z,100687.39
2019-06-15T06:24:39.373Z,100686.94
2019-06-15T06:27:10.626Z,100685.23
2019-06-15T06:29:43.837Z,100683.95
2019-06-15T06:32:14.908Z,100688.26
2019-06-15T06:34:45.762Z,100692.61
2019-06-15T06:37:16.464Z,100701.65
2019-06-15T06:39:47.069Z,100703.41
2019-06-15T06:42:17.737Z,100712.45
2019-06-15T06:44:48.369Z,100716.78
2019-06-15T06:47:19.475Z,100722.81
2019-06-15T06:49:50.382Z,100727.12
2019-06-15T06:52:21.002Z,100721.08
2019-06-15T06:54:51.526Z,100718.52
2019-06-15T06:57:22.479Z,100715.92
2019-06-15T06:59:53.082Z,100718.47
2019-06-15T07:02:25.044Z,100711.52
2019-06-15T07:04:55.749Z,100717.16
2019-06-15T07:07:26.464Z,100720.99
2019-06-15T07:09:57.133Z,100720.02
2019-06-15T07:12:27.808Z,100716.45
2019-06-15T07:14:58.610Z,100723.05
2019-06-15T07:17:29.224Z,100719.33
2019-06-15T07:19:59.863Z,100724.30
2019-06-15T07:22:30.486Z,100729.34
2019-06-15T07:25:01.218Z,100732.64
2019-06-15T07:27:31.919Z,100727.59
2019-06-15T07:30:02.687Z,100721.98
2019-06-15T07:32:33.628Z,100721.98
2019-06-15T07:35:04.831Z,100717.38
2019-06-15T07:37:35.461Z,100708.14
2019-06-15T07:40:08.237Z,100705.11
2019-06-15T07:42:39.537Z,100694.16
2019-06-15T07:45:11.099Z,100690.45
2019-06-15T07:48:06.616Z,100698.73
2019-06-15T07:50:37.008Z,100691.53
2019-06-15T07:53:07.744Z,100692.50
2019-06-15T07:55:39.171Z,100691.91
2019-06-15T07:58:23.613Z,100705.38
2019-06-15T08:00:42.516Z,100707.47
2019-06-15T08:03:13.194Z,100710.92
2019-06-15T08:05:43.625Z,100714.45
2019-06-15T08:08:14.387Z,100718.56
2019-06-15T08:10:45.061Z,100714.11
2019-06-15T08:13:16.912Z,100719.78
2019-06-15T08:15:47.457Z,100729.17
2019-06-15T08:18:18.138Z,100740.48
2019-06-15T08:20:49.138Z,100745.20
2019-06-15T08:23:19.759Z,100743.34
2019-06-15T08:25:51.658Z,100754.51
2019-06-15T08:28:22.299Z,100759.16
2019-06-15T08:30:52.918Z,100760.08
2019-06-15T08:33:23.625Z,100763.19
2019-06-15T08:35:54.739Z,100775.20
2019-06-15T08:38:25.378Z,100777.81
2019-06-15T08:40:55.988Z,100778.92
2019-06-15T08:43:26.659Z,100782.13
2019-06-15T08:46:03.213Z,100790.56
2019-06-15T08:48:34.142Z,100793.41
2019-06-15T08:51:04.835Z,100798.41
2019-06-15T08:53:35.411Z,100798.16
2019-06-15T08:56:06.062Z,100800.14
2019-06-15T08:58:36.684Z,100806.22
2019-06-15T09:01:08.399Z,100816.87
2019-06-15T09:03:39.809Z,100822.16
2019-06-15T09:06:12.097Z,100820.47
2019-06-15T09:08:44.234Z,100835.17
2019-06-15T09:11:14.938Z,100835.64
2019-06-15T09:13:45.631Z,100849.47
2019-06-15T09:16:16.330Z,100849.02
2019-06-15T09:18:46.983Z,100855.10
2019-06-15T09:21:17.564Z,100861.14
2019-06-15T09:23:48.087Z,100860.29
2019-06-15T09:26:18.700Z,100872.83
2019-06-15T09:29:10.637Z,100872.83
2019-06-15T09:31:31.765Z,100881.88
2019-06-15T09:34:15.528Z,100881.88
2019-06-15T09:36:34.827Z,100884.42
2019-06-15T09:39:07.427Z,100881.23
2019-06-15T09:41:38.401Z,100881.23
2019-06-15T09:44:09.041Z,100893.26
2019-06-15T09:46:39.666Z,100905.69
2019-06-15T09:49:10.309Z,100899.75
2019-06-15T09:51:41.093Z,100885.80
2019-06-15T09:54:11.687Z,100899.77
2019-06-15T09:56:42.338Z,100909.89
2019-06-15T09:59:25.268Z,100911.70
2019-06-15T10:01:46.258Z,100916.26
2019-06-15T10:04:16.597Z,100916.26
2019-06-15T10:06:47.609Z,100919.77
2019-06-15T10:09:18.336Z,100926.22
2019-06-15T10:11:49.773Z,100917.03
2019-06-15T10:14:21.465Z,100922.51
2019-06-15T10:16:52.129Z,100931.77
2019-06-15T10:19:25.953Z,100918.84
2019-06-15T10:21:56.999Z,100925.63
2019-06-15T10:24:30.655Z,100928.48
2019-06-15T10:27:02.070Z,100927.00
2019-06-15T10:29:41.532Z,100935.66
2019-06-15T10:32:05.381Z,100939.14
2019-06-15T10:34:37.385Z,100938.87
2019-06-15T10:37:10.424Z,100949.66
2019-06-15T10:39:41.101Z,100944.30
2019-06-15T10:42:11.831Z,100954.49
2019-06-15T10:44:54.470Z,100946.27
2019-06-15T10:47:26.024Z,100963.69
2019-06-15T10:49:57.922Z,100968.59
2019-06-15T10:52:28.331Z,100972.56
2019-06-15T10:54:58.963Z,100970.39
2019-06-15T10:57:30.097Z,100969.72
2019-06-15T11:00:00.768Z,100983.25
2019-06-15T11:02:31.737Z,100986.55
2019-06-15T11:05:02.137Z,100986.55
2019-06-15T11:07:34.681Z,100992.39
2019-06-15T11:10:06.752Z,100975.53
2019-06-15T11:12:46.317Z,100978.00
2019-06-15T11:15:10.704Z,100990.37
2019-06-15T11:17:41.589Z,101004.68
2019-06-15T11:20:15.025Z,101004.68
2019-06-15T11:22:45.640Z,101011.48
2019-06-15T11:25:16.000Z,101009.53
2019-06-15T11:27:46.721Z,101016.31
2019-06-15T11:30:17.088Z,101030.27
2019-06-15T11:32:47.868Z,101039.37
2019-06-15T11:35:19.875Z,101044.60
2019-06-15T11:37:50.538Z,101035.80
2019-06-15T11:40:21.221Z,101049.11
2019-06-15T11:42:51.763Z,101046.36
2019-06-15T11:45:22.373Z,101065.38
2019-06-15T11:47:52.953Z,101068.16
2019-06-15T11:50:23.633Z,101061.10
2019-06-15T11:52:57.110Z,101056.27
2019-06-15T11:55:38.991Z,101063.91
2019-06-15T11:58:00.060Z,101078.50
2019-06-15T12:00:33.672Z,101078.50
2019-06-15T12:03:04.100Z,101081.69
2019-06-15T12:05:35.759Z,101086.63
2019-06-15T12:08:07.600Z,101086.63
2019-06-15T12:10:38.256Z,101079.94
2019-06-15T12:13:08.874Z,101080.71
2019-06-15T12:15:41.116Z,101074.21
2019-06-15T12:18:11.647Z,101084.55
2019-06-15T12:20:42.381Z,101077.91
2019-06-15T12:23:13.180Z,101080.47
2019-06-15T12:25:43.813Z,101079.28
2019-06-15T12:28:14.260Z,101084.03
2019-06-15T12:30:47.794Z,101086.14
2019-06-15T12:33:19.244Z,101090.89
2019-06-15T12:35:49.891Z,101091.80
2019-06-15T12:38:21.391Z,101098.13
2019-06-15T12:40:51.988Z,101091.06
2019-06-15T12:43:23.802Z,101097.20
2019-06-15T12:45:57.686Z,101087.48
2019-06-15T12:48:26.844Z,101087.48
2019-06-15T12:50:57.571Z,101089.16
2019-06-15T12:53:28.926Z,101087.06
2019-06-15T12:55:59.577Z,101099.90
2019-06-15T12:58:30.217Z,101102.66
2019-06-15T13:01:03.573Z,101091.81
2019-06-15T13:03:34.267Z,101088.32
2019-06-15T13:06:04.752Z,101101.77
2019-06-15T13:08:35.692Z,101103.80
2019-06-15T13:11:06.219Z,101103.80
2019-06-15T13:13:36.809Z,101105.61
2019-06-15T13:16:07.131Z,101089.80
2019-06-15T13:18:37.749Z,101094.70
2019-06-15T13:21:08.112Z,101100.03
2019-06-15T13:23:39.014Z,101102.56
2019-06-15T13:26:09.726Z,101106.00
2019-06-15T13:28:40.363Z,101113.12
2019-06-15T13:31:18.024Z,101120.24
2019-06-15T13:33:44.237Z,101119.80
2019-06-15T13:36:14.929Z,101124.01
2019-06-15T13:38:45.599Z,101130.76
2019-06-15T13:41:17.820Z,101130.78
2019-06-15T13:43:48.637Z,101124.95
2019-06-15T13:46:20.255Z,101122.94
2019-06-15T13:48:50.862Z,101125.66
2019-06-15T13:51:21.174Z,101126.37
2019-06-15T13:53:51.860Z,101127.67
2019-06-15T13:56:22.300Z,101120.98
2019-06-15T13:58:52.873Z,101126.70
2019-06-15T14:01:33.784Z,101127.98
2019-06-15T14:03:55.584Z,101130.41
2019-06-15T14:06:26.251Z,101129.75
2019-06-15T14:08:56.909Z,101144.41
2019-06-15T14:11:27.613Z,101147.45
2019-06-15T14:13:58.014Z,101133.89
2019-06-15T14:16:28.628Z,101127.05
2019-06-15T14:18:59.233Z,101133.55
2019-06-15T14:21:29.865Z,101149.62
2019-06-15T14:24:00.531Z,101146.77
2019-06-15T14:26:33.331Z,101146.72
2019-06-15T14:29:04.951Z,101146.52
2019-06-15T14:31:49.298Z,101141.33
2019-06-15T14:34:09.229Z,101140.36
2019-06-15T14:36:39.868Z,101144.15
2019-06-15T14:39:10.389Z,101142.58
2019-06-15T14:41:41.005Z,101142.58
2019-06-15T14:44:12.740Z,101138.59
2019-06-15T14:46:43.400Z,101133.34
2019-06-15T14:49:13.779Z,101141.11
2019-06-15T14:51:44.486Z,101148.37
2019-06-15T14:54:16.204Z,101143.16
2019-06-15T14:56:46.985Z,101134.95
2019-06-15T14:59:19.715Z,101145.78
2019-06-15T15:01:57.273Z,101155.63
2019-06-15T15:04:23.314Z,101153.24
2019-06-15T15:06:56.490Z,101159.41
2019-06-15T15:09:26.686Z,101155.67
2019-06-15T15:11:57.545Z,101151.06
2019-06-15T15:14:28.994Z,101155.25
2019-06-15T15:16:59.608Z,101162.27
2019-06-15T15:19:30.647Z,101161.05
2019-06-15T15:22:01.256Z,101165.75
2019-06-15T15:24:32.164Z,101165.75
2019-06-15T15:27:02.978Z,101166.22
2019-06-15T15:29:33.841Z,101166.22
2019-06-15T15:32:04.441Z,101169.27
2019-06-15T15:34:35.387Z,101160.21
2019-06-15T15:37:06.038Z,101165.66
2019-06-15T15:39:36.971Z,101161.47
2019-06-15T15:42:07.416Z,101159.00
2019-06-15T15:44:39.219Z,101160.27
2019-06-15T15:47:09.855Z,101162.65
2019-06-15T15:49:40.852Z,101160.76
2019-06-15T15:52:11.344Z,101161.47
2019-06-15T15:54:42.161Z,101165.50
2019-06-15T15:57:17.229Z,101166.84
2019-06-15T15:59:47.452Z,101161.89
2019-06-15T16:02:19.123Z,101156.38
2019-06-15T16:04:49.835Z,101156.88
2019-06-15T16:07:20.419Z,101162.13
2019-06-15T16:09:51.300Z,101162.13
2019-06-15T16:12:23.507Z,101152.88
2019-06-15T16:14:56.330Z,101151.61
2019-06-15T16:17:27.632Z,101157.70
2019-06-15T16:19:58.408Z,101157.72
2019-06-15T16:22:29.133Z,101158.03
2019-06-15T16:25:01.025Z,101159.83
2019-06-15T16:27:31.726Z,101168.19
2019-06-15T16:30:02.182Z,101165.91
2019-06-15T16:32:33.091Z,101165.37
2019-06-15T16:35:04.064Z,101158.72
2019-06-15T16:37:34.700Z,101155.09
2019-06-15T16:40:05.906Z,101153.57
2019-06-15T16:42:36.748Z,101163.79
2019-06-15T16:45:09.006Z,101160.03
2019-06-15T16:47:39.911Z,101161.41
2019-06-15T16:50:12.000Z,101153.78
2019-06-15T16:52:42.680Z,101148.92
2019-06-15T16:55:13.101Z,101147.11
2019-06-15T16:57:46.467Z,101157.33
2019-06-15T17:00:20.531Z,101154.22
2019-06-15T17:02:51.415Z,101158.27
2019-06-15T17:05:22.035Z,101157.67
2019-06-15T17:07:52.717Z,101169.34
2019-06-15T17:10:31.241Z,101175.42
2019-06-15T17:13:02.105Z,101160.12
2019-06-15T17:15:32.714Z,101161.60
2019-06-15T17:18:03.411Z,101165.16
2019-06-15T17:20:42.561Z,101164.02
2019-06-15T17:23:13.191Z,101165.03
2019-06-15T17:25:43.586Z,101157.36
2019-06-15T17:28:14.554Z,101159.63
2019-06-15T17:33:38.426Z,101161.48
2019-06-15T17:36:09.445Z,101166.67
2019-06-15T17:38:40.324Z,101164.11
2019-06-15T17:41:10.964Z,101158.30
2019-06-15T17:43:42.885Z,101156.78
2019-06-15T17:46:13.557Z,101155.20
2019-06-15T17:48:46.697Z,101155.33
2019-06-15T17:51:17.537Z,101153.42
2019-06-15T17:53:49.078Z,101157.07
2019-06-15T17:56:19.689Z,101156.03
2019-06-15T17:58:50.446Z,101146.16
2019-06-15T18:01:22.226Z,101153.84
2019-06-15T18:03:57.231Z,101148.24
2019-06-15T18:06:26.750Z,101155.92
2019-06-15T18:08:59.040Z,101154.67
2019-06-15T18:11:29.650Z,101145.05
2019-06-15T18:14:00.138Z,101147.53
2019-06-15T18:16:30.760Z,101151.72
2019-06-15T18:19:01.395Z,101154.62
2019-06-15T18:21:31.996Z,101155.69
2019-06-15T18:24:02.838Z,101158.92
2019-06-15T18:26:33.221Z,101161.72
2019-06-15T18:29:04.067Z,101165.81
2019-06-15T18:31:36.449Z,101166.82
2019-06-15T18:34:12.787Z,101164.30
2019-06-15T18:36:40.337Z,101164.30
2019-06-15T18:39:11.010Z,101161.69
2019-06-15T18:41:42.716Z,101172.09
2019-06-15T18:44:16.040Z,101157.45
2019-06-15T18:46:46.923Z,101171.59
2019-06-15T18:49:17.882Z,101157.56
2019-06-15T18:51:48.531Z,101166.55
2019-06-15T18:54:19.157Z,101165.84
2019-06-15T18:56:49.707Z,101169.03
2019-06-15T18:59:20.465Z,101170.39
2019-06-15T19:01:51.184Z,101174.77
2019-06-15T19:04:27.048Z,101174.83
2019-06-15T19:06:56.218Z,101180.50
2019-06-15T19:09:27.043Z,101181.02
2019-06-15T19:11:58.888Z,101187.13
2019-06-15T19:14:30.494Z,101184.11
2019-06-15T19:19:38.196Z,101180.66
2019-06-15T19:22:08.847Z,101185.86
2019-06-15T19:24:39.448Z,101183.34
2019-06-15T19:27:10.348Z,101184.80
2019-06-15T19:29:41.173Z,101181.02
2019-06-15T19:32:12.824Z,101191.58
2019-06-15T19:34:47.661Z,101196.47
2019-06-15T19:37:16.073Z,101196.05
2019-06-15T19:39:46.820Z,101194.35
2019-06-15T19:42:18.361Z,101197.44
2019-06-15T19:44:49.011Z,101205.72
2019-06-15T19:47:19.963Z,101210.96
2019-06-15T19:49:50.620Z,101215.74
2019-06-15T19:52:21.531Z,101222.24
2019-06-15T19:54:52.187Z,101223.95
2019-06-15T19:57:22.847Z,101227.83
2019-06-15T19:59:56.070Z,101230.44
2019-06-15T20:02:27.137Z,101230.84
2019-06-15T20:05:03.413Z,101237.77
2019-06-15T20:07:31.265Z,101232.12
2019-06-15T20:10:01.656Z,101236.45
2019-06-15T20:12:33.363Z,101241.62
2019-06-15T20:15:06.369Z,101249.41
2019-06-15T20:17:37.095Z,101252.86
2019-06-15T20:20:07.874Z,101245.44
2019-06-15T20:22:38.307Z,101245.44
2019-06-15T20:25:08.883Z,101244.50
2019-06-15T20:27:39.571Z,101237.53
2019-06-15T20:30:11.677Z,101245.73
2019-06-15T20:32:42.577Z,101258.30
2019-06-15T20:35:18.680Z,101260.17
2019-06-15T20:37:46.505Z,101266.74
2019-06-15T20:40:21.553Z,101276.25
2019-06-15T20:42:52.411Z,101285.72
2019-06-15T20:45:26.702Z,101285.72
2019-06-15T20:48:01.249Z,101290.82
2019-06-15T20:50:32.430Z,101290.82
2019-06-15T20:53:05.846Z,101295.10
2019-06-15T20:55:37.443Z,101292.90
2019-06-15T20:58:08.297Z,101291.12
2019-06-15T21:00:39.249Z,101285.86
2019-06-15T21:03:10.096Z,101297.05
2019-06-15T21:05:42.106Z,101294.89
2019-06-15T21:08:13.219Z,101295.33
2019-06-15T21:10:46.693Z,101294.12
2019-06-15T21:13:29.520Z,101296.30
2019-06-15T21:16:01.879Z,101304.99
2019-06-15T21:18:33.995Z,101300.70
2019-06-15T21:21:06.910Z,101304.60
2019-06-15T21:23:37.570Z,101314.08
2019-06-15T21:26:08.240Z,101317.90
2019-06-15T21:28:39.067Z,101333.78
2019-06-15T21:31:09.871Z,101333.78
2019-06-15T21:33:46.610Z,101332.38
2019-06-15T21:36:16.582Z,101334.05
2019-06-15T21:38:47.419Z,101336.14
2019-06-15T21:41:17.869Z,101341.27
2019-06-15T21:43:48.807Z,101338.23
2019-06-15T21:46:19.445Z,101335.53
2019-06-15T21:48:51.727Z,101335.02
2019-06-15T21:51:22.429Z,101342.25
2019-06-15T21:53:53.022Z,101351.67
2019-06-15T21:56:28.989Z,101355.48
2019-06-15T21:58:58.202Z,101355.03
2019-06-15T22:01:37.216Z,101358.42
2019-06-15T22:04:07.354Z,101361.81
2019-06-15T22:06:37.780Z,101364.37
2019-06-15T22:09:20.255Z,101366.01
2019-06-15T22:11:47.369Z,101368.52
2019-06-15T22:14:18.245Z,101368.81
2019-06-15T22:16:48.783Z,101373.91
2019-06-15T22:19:21.824Z,101375.02
2019-06-15T22:21:52.830Z,101375.02
2019-06-15T22:24:23.190Z,101381.38
2019-06-15T22:26:55.993Z,101376.72
2019-06-15T22:29:27.392Z,101379.83
2019-06-15T22:31:58.048Z,101386.71
2019-06-15T22:34:28.851Z,101386.71
2019-06-15T22:36:59.529Z,101405.66
2019-06-15T22:39:29.886Z,101405.66
2019-06-15T22:42:01.633Z,101410.48
2019-06-15T22:44:32.277Z,101410.48
2019-06-15T22:47:06.921Z,101415.19
2019-06-15T22:49:37.820Z,101414.69
2019-06-15T22:52:09.400Z,101412.09
2019-06-15T22:54:39.841Z,101414.73
2019-06-15T22:57:12.042Z,101417.83
2019-06-15T22:59:42.922Z,101416.16
2019-06-15T23:02:16.625Z,101416.68
2019-06-15T23:04:47.245Z,101420.27
2019-06-15T23:07:20.491Z,101423.33
2019-06-15T23:09:51.398Z,101426.88
2019-06-15T23:12:23.005Z,101429.09
2019-06-15T23:14:55.895Z,101431.72
2019-06-15T23:17:26.839Z,101431.31
2019-06-15T23:19:59.714Z,101432.66
2019-06-15T23:22:31.855Z,101425.75
2019-06-15T23:25:02.772Z,101430.52
2019-06-15T23:27:35.687Z,101434.02
2019-06-15T23:30:07.191Z,101437.08
2019-06-15T23:32:39.422Z,101443.59
2019-06-15T23:35:12.081Z,101445.35
2019-06-15T23:37:42.726Z,101444.97
2019-06-15T23:40:19.847Z,101441.97
2019-06-15T23:42:51.174Z,101441.58
2019-06-15T23:45:22.002Z,101445.05
2019-06-15T23:47:53.967Z,101442.46
2019-06-15T23:50:26.381Z,101438.95
2019-06-15T23:52:57.642Z,101435.86
2019-06-15T23:55:28.216Z,101436.03
2019-06-15T23:57:59.183Z,101436.03
